RTS weather

Rottnest Island Airport
Western Australia, Australia

Public forecast

Using degrees Celsius for public forecast. Weather courtesy of forecast.io.

Closest aviation weather report (METAR) to Rottnest Island Airport

Closest report is Perth Jandakot Airport, 18.2 nm (33.7 km) ESE. Retrieved 2019/10/19 03:30 UTC (0 seconds ago):

YPJT 190330Z AUTO 10012KT 9999 // NCD 26/09 Q1015 RF000/0000

Closest aviation forecast (TAF) to Rottnest Island Airport

Forecast is more than 6 hours old.

Closest forecast is Perth Jandakot Airport, 18.2 nm (33.7 km) ESE. Retrieved 2019/10/18 18:00 UTC (9 hours ago):

TAF YPJT 181614Z 1818/1912 09015G25KT CAVOK FM190000 08020G32KT CAVOK FM190300 08012KT CAVOK FM190800 13008KT CAVOK